createdAt,value
2019-01-17T00:00:01.632Z,9.17
2019-01-17T00:02:41.788Z,8.73
2019-01-17T00:05:22.158Z,8.53
2019-01-17T00:08:06.609Z,8.40
2019-01-17T00:10:40.312Z,7.83
2019-01-17T00:13:08.372Z,8.73
2019-01-17T00:15:36.439Z,8.63
2019-01-17T00:18:04.639Z,8.47
2019-01-17T00:20:35.720Z,8.40
2019-01-17T00:23:06.264Z,7.57
2019-01-17T00:25:45.623Z,7.77
2019-01-17T00:28:16.204Z,8.43
2019-01-17T00:30:44.245Z,8.17
2019-01-17T00:33:12.244Z,7.47
2019-01-17T00:35:58.431Z,8.63
2019-01-17T00:38:42.764Z,8.50
2019-01-17T00:41:10.912Z,9.53
2019-01-17T00:43:47.796Z,9.57
2019-01-17T00:46:15.841Z,9.23
2019-01-17T00:48:43.886Z,10.57
2019-01-17T00:51:28.451Z,11.87
2019-01-17T00:54:12.939Z,12.40
2019-01-17T00:56:55.908Z,13.50
2019-01-17T00:59:23.940Z,13.50
2019-01-17T01:01:54.715Z,13.80
2019-01-17T01:04:34.534Z,14.97
2019-01-17T01:07:05.307Z,14.80
2019-01-17T01:09:49.754Z,16.83
2019-01-17T01:12:20.279Z,15.83
2019-01-17T01:15:00.738Z,16.37
2019-01-17T01:17:28.765Z,17.43
2019-01-17T01:19:56.826Z,16.77
2019-01-17T01:22:24.817Z,16.70
2019-01-17T01:24:52.856Z,18.43
2019-01-17T01:27:37.606Z,17.90
2019-01-17T01:30:25.641Z,17.43
2019-01-17T01:33:02.761Z,17.87
2019-01-17T01:35:30.739Z,19.20
2019-01-17T01:38:04.363Z,18.50
2019-01-17T01:40:34.989Z,17.67
2019-01-17T01:43:03.020Z,16.80
2019-01-17T01:45:47.426Z,17.07
2019-01-17T01:48:15.454Z,15.67
2019-01-17T01:50:43.456Z,16.23
2019-01-17T01:53:09.788Z,17.23
2019-01-17T01:55:35.929Z,16.23
2019-01-17T01:58:02.865Z,16.50
2019-01-17T02:00:29.074Z,16.07
2019-01-17T02:02:55.270Z,15.43
2019-01-17T02:05:21.465Z,17.47
2019-01-17T02:07:47.603Z,15.63
2019-01-17T02:10:14.583Z,15.57
2019-01-17T02:12:40.715Z,16.27
2019-01-17T02:15:06.826Z,15.43
2019-01-17T02:17:32.988Z,15.80
2019-01-17T02:19:59.479Z,14.93
2019-01-17T02:22:25.603Z,14.90
2019-01-17T02:24:51.729Z,14.70
2019-01-17T02:27:17.846Z,15.13
2019-01-17T02:29:43.982Z,14.33
2019-01-17T02:32:10.123Z,14.33
2019-01-17T02:34:36.269Z,14.13
2019-01-17T02:37:02.376Z,14.17
2019-01-17T02:39:28.471Z,13.03
2019-01-17T02:41:54.614Z,14.33
2019-01-17T02:44:20.709Z,14.90
2019-01-17T02:46:46.822Z,13.87
2019-01-17T02:49:13.033Z,13.33
2019-01-17T02:51:39.135Z,13.33
2019-01-17T02:54:05.279Z,12.53
2019-01-17T02:56:31.387Z,12.47
2019-01-17T02:58:57.636Z,12.83
2019-01-17T03:01:23.764Z,13.30
2019-01-17T03:03:49.876Z,13.27
2019-01-17T03:06:16.178Z,12.87
2019-01-17T03:08:42.342Z,12.53
2019-01-17T03:11:08.560Z,13.47
2019-01-17T03:13:34.685Z,11.93
2019-01-17T03:16:01.253Z,11.90
2019-01-17T03:18:27.344Z,12.47
2019-01-17T03:20:53.587Z,11.97
2019-01-17T03:23:19.682Z,12.37
2019-01-17T03:25:45.851Z,11.77
2019-01-17T03:28:11.956Z,12.90
2019-01-17T03:30:38.083Z,12.60
2019-01-17T03:33:04.233Z,13.13
2019-01-17T03:35:30.308Z,12.03
2019-01-17T03:37:56.316Z,12.80
2019-01-17T03:40:22.458Z,11.83
2019-01-17T03:42:48.594Z,12.37
2019-01-17T03:45:14.839Z,12.73
2019-01-17T03:47:41.007Z,12.60
2019-01-17T03:50:12.771Z,13.77
2019-01-17T03:52:39.084Z,13.70
2019-01-17T03:55:06.638Z,12.80
2019-01-17T03:57:32.824Z,13.40
2019-01-17T03:59:59.009Z,15.13
2019-01-17T04:02:25.119Z,14.77
2019-01-17T04:04:51.225Z,14.87
2019-01-17T04:07:17.342Z,14.23
2019-01-17T04:09:43.573Z,14.50
2019-01-17T04:12:09.724Z,15.37
2019-01-17T04:14:35.835Z,14.07
2019-01-17T04:17:02.065Z,13.87
2019-01-17T04:19:28.181Z,14.77
2019-01-17T04:21:54.279Z,13.57
2019-01-17T04:24:20.406Z,14.37
2019-01-17T04:26:46.543Z,14.03
2019-01-17T04:29:12.679Z,12.37
2019-01-17T04:31:38.715Z,12.80
2019-01-17T04:34:04.824Z,12.77
2019-01-17T04:36:30.971Z,12.90
2019-01-17T04:38:57.181Z,12.13
2019-01-17T04:41:23.299Z,12.33
2019-01-17T04:43:49.520Z,12.40
2019-01-17T04:46:15.692Z,11.80
2019-01-17T04:48:41.821Z,11.60
2019-01-17T04:51:07.950Z,12.43
2019-01-17T04:53:33.972Z,12.80
2019-01-17T04:56:00.152Z,11.07
2019-01-17T04:58:26.305Z,9.63
2019-01-17T05:00:52.426Z,9.03
2019-01-17T05:03:18.581Z,8.10
2019-01-17T05:05:44.788Z,8.20
2019-01-17T05:08:10.963Z,7.17
2019-01-17T05:10:37.077Z,6.60
2019-01-17T05:13:03.234Z,6.87
2019-01-17T05:15:29.368Z,6.20
2019-01-17T05:17:55.524Z,5.73
2019-01-17T05:20:21.678Z,5.43
2019-01-17T05:22:47.824Z,4.43
2019-01-17T05:25:13.936Z,3.83
2019-01-17T05:27:40.062Z,2.97
2019-01-17T05:30:13.121Z,3.30
2019-01-17T05:32:39.169Z,3.07
2019-01-17T05:35:05.301Z,3.10
2019-01-17T05:37:31.424Z,2.50
2019-01-17T05:39:57.475Z,2.30
2019-01-17T05:42:23.584Z,2.47
2019-01-17T05:44:49.735Z,2.07
2019-01-17T05:47:15.859Z,2.10
2019-01-17T05:49:41.989Z,1.87
2019-01-17T05:52:09.642Z,1.90
2019-01-17T05:54:35.894Z,1.90
2019-01-17T05:57:02.068Z,2.27
2019-01-17T05:59:29.107Z,2.03
2019-01-17T06:01:55.469Z,1.90
2019-01-17T06:04:21.646Z,1.90
2019-01-17T06:06:47.780Z,1.93
2019-01-17T06:09:13.925Z,1.97
2019-01-17T06:11:40.073Z,2.10
2019-01-17T06:14:06.269Z,1.93
2019-01-17T06:16:32.435Z,1.90
2019-01-17T06:18:58.549Z,1.50
2019-01-17T06:21:24.739Z,1.60
2019-01-17T06:23:50.928Z,1.77
2019-01-17T06:26:17.335Z,2.20
2019-01-17T06:28:43.466Z,2.07
2019-01-17T06:31:09.606Z,1.50
2019-01-17T06:33:35.711Z,2.10
2019-01-17T06:36:01.868Z,1.80
2019-01-17T06:38:27.970Z,1.73
2019-01-17T06:40:54.105Z,1.90
2019-01-17T06:43:20.204Z,1.77
2019-01-17T06:45:46.628Z,1.60
2019-01-17T06:48:12.828Z,2.07
2019-01-17T06:50:38.938Z,1.73
2019-01-17T06:53:05.078Z,1.70
2019-01-17T06:55:34.562Z,2.03
2019-01-17T06:57:59.347Z,2.00
2019-01-17T07:00:25.576Z,1.97
2019-01-17T07:02:51.717Z,1.97
2019-01-17T07:05:17.962Z,3.07
2019-01-17T07:07:44.101Z,1.97
2019-01-17T07:10:15.185Z,2.67
2019-01-17T07:12:41.296Z,2.77
2019-01-17T07:15:08.242Z,2.67
2019-01-17T07:17:34.382Z,2.80
2019-01-17T07:20:00.502Z,2.40
2019-01-17T07:22:26.674Z,5.93
2019-01-17T07:24:52.791Z,2.63
2019-01-17T07:27:18.966Z,2.77
2019-01-17T07:29:45.072Z,2.67
2019-01-17T07:32:11.096Z,2.60
2019-01-17T07:34:37.227Z,3.27
2019-01-17T07:37:03.678Z,3.13
2019-01-17T07:39:29.822Z,3.90
2019-01-17T07:41:55.957Z,3.53
2019-01-17T07:44:22.231Z,3.90
2019-01-17T07:46:48.356Z,4.40
2019-01-17T07:49:14.517Z,4.10
2019-01-17T07:51:40.627Z,4.30
2019-01-17T07:54:06.793Z,4.40
2019-01-17T07:56:32.922Z,4.43
2019-01-17T07:58:59.064Z,4.13
2019-01-17T08:01:25.164Z,4.70
2019-01-17T08:03:51.302Z,4.80
2019-01-17T08:06:17.458Z,5.53
2019-01-17T08:08:43.715Z,5.47
2019-01-17T08:11:09.840Z,5.47
2019-01-17T08:13:35.938Z,5.27
2019-01-17T08:16:02.220Z,6.20
2019-01-17T08:18:28.356Z,4.90
2019-01-17T08:20:54.457Z,4.80
2019-01-17T08:23:20.602Z,3.10
2019-01-17T08:25:46.777Z,2.37
2019-01-17T08:28:12.904Z,2.63
2019-01-17T08:30:39.082Z,3.17
2019-01-17T08:33:05.218Z,2.83
2019-01-17T08:35:31.353Z,4.10
2019-01-17T08:37:57.491Z,4.70
2019-01-17T08:40:25.827Z,4.47
2019-01-17T08:42:51.947Z,5.30
2019-01-17T08:45:18.097Z,5.33
2019-01-17T08:47:44.310Z,6.33
2019-01-17T08:50:12.777Z,7.30
2019-01-17T08:52:38.895Z,9.37
2019-01-17T08:55:05.920Z,8.97
2019-01-17T08:57:32.071Z,9.83
2019-01-17T08:59:58.236Z,10.73
2019-01-17T09:02:24.326Z,10.00
2019-01-17T09:04:50.454Z,10.53
2019-01-17T09:07:16.656Z,10.00
2019-01-17T09:09:42.808Z,10.17
2019-01-17T09:12:09.011Z,16.37
2019-01-17T09:14:35.121Z,8.47
2019-01-17T09:17:01.365Z,8.87
2019-01-17T09:19:27.624Z,7.77
2019-01-17T09:21:53.774Z,7.57
2019-01-17T09:24:19.889Z,8.00
2019-01-17T09:26:46.122Z,8.37
2019-01-17T09:29:12.257Z,7.20
2019-01-17T09:31:38.402Z,6.47
2019-01-17T09:34:04.635Z,6.70
2019-01-17T09:36:30.968Z,7.00
2019-01-17T09:38:57.101Z,6.23
2019-01-17T09:41:23.251Z,7.10
2019-01-17T09:43:49.378Z,5.97
2019-01-17T09:46:15.554Z,4.93
2019-01-17T09:48:41.721Z,4.87
2019-01-17T09:51:07.847Z,4.63
2019-01-17T09:53:34.004Z,4.10
2019-01-17T09:56:05.311Z,3.90
2019-01-17T09:58:39.052Z,3.60
2019-01-17T10:01:12.666Z,3.23
2019-01-17T10:03:45.694Z,2.70
2019-01-17T10:06:19.095Z,1.63
2019-01-17T10:08:45.618Z,1.53
2019-01-17T10:11:11.849Z,1.40
2019-01-17T10:13:37.974Z,1.37
2019-01-17T10:16:07.821Z,1.40
2019-01-17T10:18:54.198Z,1.33
2019-01-17T10:21:29.707Z,1.87
2019-01-17T10:24:25.138Z,1.10
2019-01-17T10:27:00.703Z,1.50
2019-01-17T10:29:51.559Z,1.40
2019-01-17T10:32:21.700Z,1.53
2019-01-17T10:35:09.177Z,2.00
2019-01-17T10:37:45.158Z,2.17
2019-01-17T10:40:14.908Z,2.00
2019-01-17T10:42:56.885Z,1.87
2019-01-17T10:45:26.756Z,2.37
2019-01-17T10:48:00.181Z,2.20
2019-01-17T10:50:34.455Z,4.20
2019-01-17T10:53:04.200Z,2.13
2019-01-17T10:55:43.140Z,1.63
2019-01-17T10:58:12.855Z,1.80
2019-01-17T11:01:02.639Z,2.73
2019-01-17T11:03:35.316Z,1.30
2019-01-17T11:06:29.111Z,1.33
2019-01-17T11:09:25.825Z,1.50
2019-01-17T11:12:01.593Z,2.03
2019-01-17T11:14:37.111Z,1.90
2019-01-17T11:17:06.835Z,1.57
2019-01-17T11:19:39.613Z,1.23
2019-01-17T11:22:44.322Z,1.07
2019-01-17T11:25:22.975Z,1.30
2019-01-17T11:28:02.013Z,1.40
2019-01-17T11:30:46.897Z,1.50
2019-01-17T11:33:19.447Z,4.30
2019-01-17T11:36:06.138Z,1.70
2019-01-17T11:38:57.153Z,1.87
2019-01-17T11:41:43.693Z,1.13
2019-01-17T11:44:19.187Z,1.93
2019-01-17T11:47:15.977Z,1.27
2019-01-17T11:50:14.875Z,3.80
2019-01-17T11:53:01.755Z,2.50
2019-01-17T11:55:51.834Z,2.60
2019-01-17T11:58:34.186Z,2.37
2019-01-17T12:01:07.273Z,2.23
2019-01-17T12:04:07.420Z,2.40
2019-01-17T12:06:33.586Z,2.10
2019-01-17T12:08:59.725Z,2.57
2019-01-17T12:11:25.929Z,2.20
2019-01-17T12:13:52.157Z,2.50
2019-01-17T12:16:18.349Z,2.77
2019-01-17T12:18:44.506Z,1.90
2019-01-17T12:21:10.493Z,2.63
2019-01-17T12:23:36.982Z,2.40
2019-01-17T12:26:03.200Z,2.47
2019-01-17T12:28:29.474Z,2.17
2019-01-17T12:30:55.675Z,2.27
2019-01-17T12:33:21.775Z,1.97
2019-01-17T12:35:48.201Z,1.73
2019-01-17T12:38:14.418Z,2.20
2019-01-17T12:40:40.589Z,2.00
2019-01-17T12:43:06.839Z,2.20
2019-01-17T12:45:32.965Z,2.23
2019-01-17T12:47:59.188Z,2.40
2019-01-17T12:50:25.341Z,2.17
2019-01-17T12:52:51.447Z,2.00
2019-01-17T12:55:17.597Z,1.93
2019-01-17T12:57:43.581Z,1.60
2019-01-17T13:00:17.238Z,2.10
2019-01-17T13:02:43.375Z,1.67
2019-01-17T13:05:09.652Z,1.70
2019-01-17T13:07:35.932Z,1.93
2019-01-17T13:10:04.663Z,1.77
2019-01-17T13:12:30.913Z,2.20
2019-01-17T13:14:57.009Z,1.70
2019-01-17T13:17:23.181Z,2.00
2019-01-17T13:19:49.317Z,1.97
2019-01-17T13:22:15.510Z,1.93
2019-01-17T13:24:41.634Z,1.83
2019-01-17T13:27:07.727Z,2.37
2019-01-17T13:29:34.196Z,1.87
2019-01-17T13:32:00.385Z,1.60
2019-01-17T13:34:26.557Z,1.73
2019-01-17T13:36:52.779Z,2.00
2019-01-17T13:39:18.906Z,1.67
2019-01-17T13:41:44.987Z,1.97
2019-01-17T13:44:11.387Z,2.00
2019-01-17T13:46:37.614Z,1.23
2019-01-17T13:49:03.777Z,1.67
2019-01-17T13:51:29.871Z,2.03
2019-01-17T13:53:56.030Z,2.07
2019-01-17T13:56:22.192Z,2.53
2019-01-17T13:58:48.307Z,1.63
2019-01-17T14:01:14.423Z,1.80
2019-01-17T14:03:40.563Z,1.80
2019-01-17T14:06:06.785Z,1.63
2019-01-17T14:08:33.158Z,1.73
2019-01-17T14:10:59.372Z,1.73
2019-01-17T14:13:25.492Z,2.03
2019-01-17T14:15:51.725Z,1.83
2019-01-17T14:18:17.872Z,1.73
2019-01-17T14:20:44.082Z,2.23
2019-01-17T14:23:10.196Z,1.73
2019-01-17T14:25:36.454Z,1.87
2019-01-17T14:28:02.997Z,2.33
2019-01-17T14:30:33.560Z,2.17
2019-01-17T14:32:59.699Z,1.57
2019-01-17T14:35:25.871Z,1.90
2019-01-17T14:37:52.055Z,1.70
2019-01-17T14:40:18.271Z,1.50
2019-01-17T14:42:44.421Z,1.70
2019-01-17T14:45:13.571Z,3.97
2019-01-17T14:47:39.599Z,1.70
2019-01-17T14:50:12.118Z,2.00
2019-01-17T14:52:38.411Z,1.90
2019-01-17T14:55:06.456Z,1.60
2019-01-17T14:57:32.566Z,2.00
2019-01-17T14:59:58.706Z,2.00
2019-01-17T15:02:24.820Z,1.80
2019-01-17T15:04:50.990Z,1.97
2019-01-17T15:07:17.224Z,2.80
2019-01-17T15:09:43.363Z,1.93
2019-01-17T15:12:09.415Z,2.97
2019-01-17T15:14:35.578Z,2.00
2019-01-17T15:17:01.875Z,2.30
2019-01-17T15:19:27.990Z,2.00
2019-01-17T15:21:54.143Z,4.73
2019-01-17T15:24:20.365Z,2.00
2019-01-17T15:26:46.491Z,12.83
2019-01-17T15:29:12.719Z,2.00
2019-01-17T15:31:39.172Z,2.13
2019-01-17T15:34:05.309Z,1.60
2019-01-17T15:36:31.501Z,9.70
2019-01-17T15:38:57.713Z,2.00
2019-01-17T15:41:28.500Z,22.93
2019-01-17T15:43:51.904Z,2.00
2019-01-17T15:46:18.063Z,2.00
2019-01-17T15:48:44.213Z,2.20
2019-01-17T15:51:10.327Z,1.90
2019-01-17T15:53:36.456Z,1.67
2019-01-17T15:56:02.705Z,1.90
2019-01-17T15:58:28.849Z,2.60
2019-01-17T16:00:54.977Z,1.87
2019-01-17T16:03:21.134Z,2.43
2019-01-17T16:05:47.365Z,3.03
2019-01-17T16:08:13.555Z,2.03
2019-01-17T16:10:39.744Z,1.87
2019-01-17T16:13:06.033Z,3.10
2019-01-17T16:15:32.262Z,2.43
2019-01-17T16:17:58.485Z,3.23
2019-01-17T16:20:24.620Z,1.90
2019-01-17T16:22:50.845Z,2.20
2019-01-17T16:25:16.979Z,2.03
2019-01-17T16:27:43.189Z,2.27
2019-01-17T16:30:15.546Z,2.40
2019-01-17T16:32:41.777Z,2.17
2019-01-17T16:35:08.776Z,2.40
2019-01-17T16:37:34.922Z,2.10
2019-01-17T16:40:01.158Z,2.20
2019-01-17T16:42:27.312Z,1.87
2019-01-17T16:44:54.556Z,2.07
2019-01-17T16:47:20.757Z,2.27
2019-01-17T16:49:46.916Z,2.00
2019-01-17T16:52:13.020Z,1.80
2019-01-17T16:54:39.206Z,1.80
2019-01-17T16:57:05.324Z,2.10
2019-01-17T16:59:31.463Z,2.10
2019-01-17T17:01:57.665Z,2.40
2019-01-17T17:04:23.833Z,2.20
2019-01-17T17:06:49.939Z,2.20
2019-01-17T17:09:16.082Z,1.83
2019-01-17T17:11:42.372Z,2.00
2019-01-17T17:14:08.560Z,2.60
2019-01-17T17:16:34.830Z,1.80
2019-01-17T17:19:00.982Z,1.53
2019-01-17T17:21:27.175Z,2.07
2019-01-17T17:23:53.321Z,6.23
2019-01-17T17:26:19.439Z,1.83
2019-01-17T17:28:45.581Z,2.40
2019-01-17T17:31:11.800Z,2.03
2019-01-17T17:33:37.858Z,2.20
2019-01-17T17:36:03.971Z,1.83
2019-01-17T17:38:30.110Z,2.47
2019-01-17T17:40:56.336Z,12.20
2019-01-17T17:43:22.568Z,1.53
2019-01-17T17:45:48.674Z,1.10
2019-01-17T17:48:14.923Z,1.80
2019-01-17T17:50:41.153Z,1.63
2019-01-17T17:53:07.333Z,2.23
2019-01-17T17:55:33.566Z,1.70
2019-01-17T17:58:02.283Z,1.70
2019-01-17T18:00:45.181Z,2.10
2019-01-17T18:03:11.296Z,2.07
2019-01-17T18:05:37.633Z,2.10
2019-01-17T18:08:04.193Z,2.00
2019-01-17T18:10:31.348Z,2.10
2019-01-17T18:12:57.488Z,2.10
2019-01-17T18:15:23.781Z,1.70
2019-01-17T18:17:49.901Z,2.33
2019-01-17T18:20:16.657Z,2.10
2019-01-17T18:22:42.921Z,1.70
2019-01-17T18:25:14.262Z,1.60
2019-01-17T18:27:40.954Z,2.10
2019-01-17T18:33:18.479Z,2.10
2019-01-17T18:35:44.643Z,2.17
2019-01-17T18:38:10.883Z,1.90
2019-01-17T18:40:37.122Z,2.20
2019-01-17T18:43:03.513Z,2.50
2019-01-17T18:45:29.646Z,2.43
2019-01-17T18:47:55.849Z,2.80
2019-01-17T18:50:31.469Z,3.47
2019-01-17T18:52:57.611Z,3.30
2019-01-17T18:55:23.777Z,3.40
2019-01-17T18:57:49.909Z,2.90
2019-01-17T19:00:21.461Z,4.23
2019-01-17T19:02:47.708Z,3.20
2019-01-17T19:05:13.927Z,2.97
2019-01-17T19:07:40.051Z,2.67
2019-01-17T19:10:09.835Z,2.87
2019-01-17T19:12:35.965Z,3.20
2019-01-17T19:15:05.327Z,3.00
2019-01-17T19:17:31.595Z,2.97
2019-01-17T19:19:57.839Z,2.90
2019-01-17T19:22:25.147Z,3.20
2019-01-17T19:24:51.158Z,3.67
2019-01-17T19:27:17.306Z,4.13
2019-01-17T19:29:43.695Z,2.40
2019-01-17T19:32:09.959Z,3.43
2019-01-17T19:34:36.181Z,3.03
2019-01-17T19:37:02.329Z,2.97
2019-01-17T19:39:28.427Z,2.40
2019-01-17T19:41:54.717Z,2.70
2019-01-17T19:44:21.331Z,2.80
2019-01-17T19:46:47.483Z,2.40
2019-01-17T19:49:13.639Z,2.63
2019-01-17T19:51:39.670Z,3.23
2019-01-17T19:54:05.827Z,3.10
2019-01-17T19:56:32.055Z,3.20
2019-01-17T19:58:58.346Z,3.63
2019-01-17T20:01:24.597Z,3.17
2019-01-17T20:03:50.796Z,3.37
2019-01-17T20:06:16.946Z,2.97
2019-01-17T20:08:43.099Z,2.87
2019-01-17T20:11:09.194Z,2.50
2019-01-17T20:13:35.318Z,2.93
2019-01-17T20:16:01.868Z,2.67
2019-01-17T20:18:27.986Z,2.50
2019-01-17T20:20:54.258Z,2.80
2019-01-17T20:23:20.495Z,3.60
2019-01-17T20:25:46.631Z,2.30
2019-01-17T20:28:12.745Z,2.77
2019-01-17T20:30:38.844Z,2.87
2019-01-17T20:33:05.082Z,3.40
2019-01-17T20:35:31.192Z,3.60
2019-01-17T20:37:57.332Z,3.37
2019-01-17T20:40:23.624Z,3.20
2019-01-17T20:42:49.800Z,3.93
2019-01-17T20:45:15.933Z,3.20
2019-01-17T20:47:41.957Z,3.20
2019-01-17T20:50:10.629Z,20.43
2019-01-17T20:52:36.862Z,2.83
2019-01-17T20:55:05.836Z,2.90
2019-01-17T20:57:32.188Z,3.20
2019-01-17T20:59:58.224Z,3.27
2019-01-17T21:02:24.526Z,2.80
2019-01-17T21:04:50.636Z,2.50
2019-01-17T21:07:16.774Z,2.50
2019-01-17T21:09:42.940Z,3.47
2019-01-17T21:12:09.150Z,2.33
2019-01-17T21:14:35.316Z,3.47
2019-01-17T21:17:01.537Z,2.80
2019-01-17T21:19:27.686Z,13.23
2019-01-17T21:21:53.937Z,3.37
2019-01-17T21:24:20.153Z,3.23
2019-01-17T21:26:46.151Z,2.80
2019-01-17T21:29:14.139Z,2.80
2019-01-17T21:31:41.346Z,3.00
2019-01-17T21:34:13.755Z,3.00
2019-01-17T21:36:40.185Z,3.27
2019-01-17T21:39:06.993Z,2.90
2019-01-17T21:41:33.101Z,3.17
2019-01-17T21:43:59.369Z,3.10
2019-01-17T21:46:25.482Z,6.60
2019-01-17T21:48:51.632Z,2.80
2019-01-17T21:51:17.771Z,2.70
2019-01-17T21:53:45.653Z,2.93
2019-01-17T21:56:12.084Z,2.87
2019-01-17T21:58:38.210Z,2.50
2019-01-17T22:01:04.352Z,2.53
2019-01-17T22:03:30.496Z,3.10
2019-01-17T22:05:56.663Z,2.57
2019-01-17T22:08:23.047Z,3.00
2019-01-17T22:10:49.235Z,2.73
2019-01-17T22:13:15.387Z,2.73
2019-01-17T22:15:41.570Z,3.07
2019-01-17T22:18:07.740Z,3.43
2019-01-17T22:20:33.868Z,2.80
2019-01-17T22:23:00.000Z,3.17
2019-01-17T22:25:26.146Z,2.90
2019-01-17T22:27:52.566Z,2.87
2019-01-17T22:30:24.682Z,2.73
2019-01-17T22:32:50.850Z,3.77
2019-01-17T22:35:16.970Z,2.50
2019-01-17T22:37:43.153Z,2.80
2019-01-17T22:40:11.695Z,3.10
2019-01-17T22:42:37.819Z,2.70
2019-01-17T22:45:07.699Z,2.50
2019-01-17T22:47:33.892Z,3.00
2019-01-17T22:50:00.189Z,2.77
2019-01-17T22:52:26.218Z,3.30
2019-01-17T22:54:52.336Z,2.97
2019-01-17T22:57:18.580Z,2.87
2019-01-17T22:59:44.695Z,2.80
2019-01-17T23:02:10.837Z,3.07
2019-01-17T23:04:37.057Z,2.90
2019-01-17T23:07:03.325Z,2.60
2019-01-17T23:09:29.446Z,2.57
2019-01-17T23:11:55.591Z,3.37
2019-01-17T23:14:21.871Z,2.77
2019-01-17T23:16:48.136Z,2.40
2019-01-17T23:19:14.246Z,2.97
2019-01-17T23:21:40.403Z,2.60
2019-01-17T23:24:06.641Z,3.30
2019-01-17T23:26:32.728Z,2.97
2019-01-17T23:28:58.892Z,2.47
2019-01-17T23:31:24.996Z,3.10
2019-01-17T23:33:51.151Z,2.53
2019-01-17T23:36:17.276Z,2.70
2019-01-17T23:38:43.763Z,3.10
2019-01-17T23:41:09.972Z,3.53
2019-01-17T23:43:36.161Z,3.13
2019-01-17T23:46:02.517Z,2.43
2019-01-17T23:48:28.629Z,3.10
2019-01-17T23:50:54.792Z,3.73
2019-01-17T23:53:21.021Z,3.07
2019-01-17T23:55:47.268Z,3.20
2019-01-17T23:58:13.305Z,3.03
